Time;durP1;ratioP1;P1;durP2;ratioP2;P2;SDS_P1;SDS_P2;PMS_P1;PMS_P2;Temp;Humidity;BMP_temperature;BMP_pressure;BME280_temperature;BME280_humidity;BME280_pressure;Samples;Min_cycle;Max_cycle;Signal;HPM_P1;HPM_P2
2022/01/13 00:01:12;;;;;;;93.27;33.63;;;-1.90;43.70;;;;;;5028053;28;20459;-64
2022/01/13 00:03:41;;;;;;;87.13;31.93;;;-1.90;44.00;;;;;;5026709;28;20459;-65
2022/01/13 00:06:07;;;;;;;84.93;33.07;;;-1.90;43.80;;;;;;5028273;28;20545;-66
2022/01/13 00:08:34;;;;;;;86.03;31.23;;;-1.90;43.70;;;;;;5028252;28;20466;-65
2022/01/13 00:11:01;;;;;;;90.37;34.03;;;-2.00;43.60;;;;;;5028277;28;20482;-65
2022/01/13 00:13:33;;;;;;;92.93;34.17;;;-2.00;43.50;;;;;;5025884;28;20514;-64
2022/01/13 00:16:24;;;;;;;84.90;30.20;;;-2.00;43.70;;;;;;5026323;28;20482;-65
2022/01/13 00:19:04;;;;;;;89.23;30.13;;;-2.00;43.60;;;;;;5016910;28;20465;-65
2022/01/13 00:21:35;;;;;;;89.37;30.40;;;-2.00;43.60;;;;;;5015939;28;20471;-64
2022/01/13 00:24:04;;;;;;;92.80;32.73;;;-2.00;43.80;;;;;;5026495;28;20531;-64
2022/01/13 00:26:33;;;;;;;89.70;31.63;;;-2.00;43.80;;;;;;5027760;28;20485;-64
2022/01/13 00:29:02;;;;;;;84.63;28.53;;;-2.00;43.90;;;;;;5026287;28;20882;-63
2022/01/13 00:31:32;;;;;;;100.67;32.57;;;-2.00;43.80;;;;;;5027158;28;21008;-63
2022/01/13 00:34:04;;;;;;;91.47;33.37;;;-2.00;43.70;;;;;;5026502;28;20478;-64
2022/01/13 00:36:33;;;;;;;86.57;31.13;;;-2.00;43.50;;;;;;5024057;28;20478;-63
2022/01/13 00:39:00;;;;;;;87.40;32.10;;;-2.00;43.60;;;;;;5020829;28;20461;-63
2022/01/13 00:41:29;;;;;;;87.17;33.00;;;-2.00;43.60;;;;;;5028901;28;20459;-64
2022/01/13 00:43:56;;;;;;;89.90;31.47;;;-2.00;43.60;;;;;;5038400;28;20458;-64
2022/01/13 00:46:27;;;;;;;92.00;34.20;;;-2.00;43.50;;;;;;5025391;28;21041;-64
2022/01/13 00:48:56;;;;;;;86.07;30.67;;;-2.10;43.40;;;;;;5028133;28;20455;-63
2022/01/13 00:51:25;;;;;;;88.03;32.07;;;-2.00;43.40;;;;;;5026585;28;20455;-62
2022/01/13 00:53:52;;;;;;;87.37;31.30;;;-2.10;43.20;;;;;;5027136;28;20486;-62
2022/01/13 00:56:20;;;;;;;86.47;29.80;;;-2.10;43.40;;;;;;5025701;28;20876;-64
2022/01/13 00:58:47;;;;;;;88.77;31.53;;;-2.10;43.40;;;;;;5027124;28;20462;-63
2022/01/13 01:01:14;;;;;;;93.13;33.27;;;-2.10;43.40;;;;;;5021813;28;20474;-63
2022/01/13 01:03:41;;;;;;;89.93;32.73;;;-2.20;43.40;;;;;;5027492;28;20455;-63
2022/01/13 01:06:08;;;;;;;90.97;34.40;;;-2.10;43.60;;;;;;5024695;28;20493;-65
2022/01/13 01:08:37;;;;;;;89.87;32.17;;;-2.20;43.40;;;;;;5026470;28;20467;-63
2022/01/13 01:11:04;;;;;;;82.70;29.77;;;-2.20;43.40;;;;;;5026845;28;20505;-64
2022/01/13 01:13:33;;;;;;;91.83;31.90;;;-2.20;43.40;;;;;;5026272;28;21166;-65
2022/01/13 01:16:04;;;;;;;90.50;32.50;;;-2.20;43.30;;;;;;5026222;28;20486;-65
2022/01/13 01:18:37;;;;;;;89.03;31.87;;;-2.20;43.30;;;;;;5025837;28;20451;-63
2022/01/13 01:21:32;;;;;;;90.77;31.33;;;-2.20;43.30;;;;;;5026691;28;20462;-63
2022/01/13 01:24:26;;;;;;;96.80;32.37;;;-2.20;43.30;;;;;;5026032;28;20454;-63
2022/01/13 01:29:25;;;;;;;88.80;30.70;;;-2.10;43.50;;;;;;5032359;28;20470;-62
2022/01/13 01:31:54;;;;;;;92.37;34.07;;;-2.30;43.40;;;;;;5028466;28;20969;-63
2022/01/13 01:34:45;;;;;;;94.43;31.60;;;-2.20;43.50;;;;;;5038956;28;21261;-63
2022/01/13 01:37:16;;;;;;;80.13;29.37;;;-2.30;43.30;;;;;;5035603;28;20497;-62
2022/01/13 01:39:45;;;;;;;91.10;29.80;;;-2.30;43.30;;;;;;5042645;28;20462;-63
2022/01/13 01:42:13;;;;;;;86.00;29.40;;;-2.30;43.50;;;;;;5050737;28;20453;-63
2022/01/13 01:44:43;;;;;;;99.17;29.80;;;-2.30;43.50;;;;;;5040330;28;20455;-62
2022/01/13 01:47:13;;;;;;;84.17;29.73;;;-2.30;43.40;;;;;;5044162;28;20477;-63
2022/01/13 01:49:42;;;;;;;85.27;30.70;;;-2.30;43.50;;;;;;5031951;28;21603;-63
2022/01/13 01:52:10;;;;;;;84.40;31.03;;;-2.30;43.40;;;;;;5034524;28;20831;-62
2022/01/13 01:54:37;;;;;;;85.60;29.63;;;-2.40;43.30;;;;;;5034163;28;20531;-62
2022/01/13 01:57:06;;;;;;;94.27;30.43;;;-2.40;43.40;;;;;;5048119;28;20481;-63
2022/01/13 01:59:37;;;;;;;86.10;31.57;;;-2.40;43.30;;;;;;5038217;28;20474;-63
2022/01/13 02:02:04;;;;;;;83.83;28.73;;;-2.40;43.30;;;;;;5033292;28;20809;-63
2022/01/13 02:04:31;;;;;;;91.30;31.07;;;-2.40;43.30;;;;;;5030924;28;21022;-63
2022/01/13 02:07:00;;;;;;;92.50;33.87;;;-2.40;43.40;;;;;;5029861;28;20479;-63
2022/01/13 02:09:26;;;;;;;91.90;30.77;;;-2.40;43.50;;;;;;5035898;28;20995;-63
2022/01/13 02:11:56;;;;;;;90.97;33.83;;;-2.40;43.30;;;;;;5031447;28;20462;-63
2022/01/13 02:14:35;;;;;;;91.10;32.07;;;-2.40;43.50;;;;;;5042982;28;21237;-62
2022/01/13 02:17:08;;;;;;;88.87;30.40;;;-2.40;43.50;;;;;;5032044;28;20481;-61
2022/01/13 02:19:46;;;;;;;88.27;29.20;;;-2.40;43.30;;;;;;5038181;28;20465;-62
2022/01/13 02:22:14;;;;;;;91.00;31.73;;;-2.50;43.50;;;;;;5035133;28;20463;-64
2022/01/13 02:24:41;;;;;;;90.40;30.83;;;-2.40;43.40;;;;;;5029774;28;22185;-63
2022/01/13 02:27:08;;;;;;;90.30;30.30;;;-2.50;43.50;;;;;;5029556;28;20487;-63
2022/01/13 02:29:36;;;;;;;89.07;30.60;;;-2.50;43.40;;;;;;5037545;28;20980;-63
2022/01/13 02:32:05;;;;;;;85.00;32.90;;;-2.40;43.50;;;;;;5034282;28;20454;-64
2022/01/13 02:34:31;;;;;;;91.33;32.20;;;-2.50;43.30;;;;;;5053194;28;20479;-63
2022/01/13 02:36:59;;;;;;;93.27;32.70;;;-2.50;43.40;;;;;;5034780;28;21015;-63
2022/01/13 02:39:28;;;;;;;91.77;33.37;;;-2.50;43.50;;;;;;5030716;28;20455;-63
2022/01/13 02:41:55;;;;;;;90.93;30.43;;;-2.40;43.60;;;;;;5032129;28;20466;-63
2022/01/13 02:44:24;;;;;;;97.20;31.77;;;-2.40;43.70;;;;;;5033568;28;20467;-63
2022/01/13 02:47:10;;;;;;;91.00;31.33;;;-2.40;43.80;;;;;;5031220;28;20474;-64
2022/01/13 02:49:37;;;;;;;85.83;28.63;;;-2.40;43.70;;;;;;5042896;28;20723;-64
2022/01/13 02:52:05;;;;;;;91.87;32.40;;;-2.40;43.70;;;;;;5029385;28;20458;-63
2022/01/13 02:54:33;;;;;;;92.37;32.43;;;-2.40;43.70;;;;;;5029178;28;20489;-64
2022/01/13 02:57:00;;;;;;;88.93;33.40;;;-2.40;43.50;;;;;;5042377;28;20480;-63
2022/01/13 02:59:27;;;;;;;88.23;31.93;;;-2.40;43.40;;;;;;5041909;28;20485;-62
2022/01/13 03:01:53;;;;;;;88.33;31.17;;;-2.40;43.40;;;;;;5040295;28;20840;-63
2022/01/13 03:04:22;;;;;;;92.43;34.23;;;-2.40;43.40;;;;;;5049273;28;20450;-63
2022/01/13 03:06:49;;;;;;;91.10;33.37;;;-2.40;43.50;;;;;;5038722;28;20479;-64
2022/01/13 03:09:16;;;;;;;90.03;32.77;;;-2.40;43.50;;;;;;5029729;28;20494;-62
2022/01/13 03:11:46;;;;;;;91.77;32.00;;;-2.40;43.40;;;;;;5028954;28;20881;-63
2022/01/13 03:14:13;;;;;;;91.47;31.20;;;-2.40;43.40;;;;;;5037642;28;20454;-64
2022/01/13 03:16:43;;;;;;;89.53;31.60;;;-2.40;43.30;;;;;;5040374;28;20649;-63
2022/01/13 03:19:10;;;;;;;87.90;30.63;;;-2.50;43.30;;;;;;5031617;28;20470;-62
2022/01/13 03:21:37;;;;;;;90.30;31.67;;;-2.50;43.20;;;;;;5043131;28;20455;-62
2022/01/13 03:24:08;;;;;;;86.17;30.20;;;-2.40;43.40;;;;;;5029161;28;20455;-63
2022/01/13 03:26:34;;;;;;;84.43;29.73;;;-2.50;43.40;;;;;;5033124;28;20547;-63
2022/01/13 03:29:15;;;;;;;89.90;30.27;;;-2.50;43.30;;;;;;5034689;28;20475;-63
2022/01/13 03:31:43;;;;;;;84.17;30.90;;;-2.50;43.40;;;;;;5027755;28;20541;-63
2022/01/13 03:34:11;;;;;;;88.30;31.23;;;-2.50;43.50;;;;;;5041617;28;20517;-63
2022/01/13 03:36:37;;;;;;;93.70;32.00;;;-2.50;43.50;;;;;;5024075;28;20470;-63
2022/01/13 03:39:06;;;;;;;95.83;33.57;;;-2.50;43.50;;;;;;5037143;28;21051;-63
2022/01/13 03:41:33;;;;;;;85.50;30.57;;;-2.50;43.50;;;;;;5034731;28;20454;-63
2022/01/13 03:44:05;;;;;;;91.57;31.03;;;-2.50;43.30;;;;;;5037430;28;21032;-64
2022/01/13 03:46:34;;;;;;;91.53;30.93;;;-2.50;43.30;;;;;;5044761;28;21070;-62
2022/01/13 03:49:01;;;;;;;94.67;33.00;;;-2.50;43.40;;;;;;5033206;28;20486;-63
2022/01/13 03:52:10;;;;;;;87.30;32.40;;;-2.50;43.30;;;;;;5027207;28;20451;-63
2022/01/13 03:55:14;;;;;;;91.00;30.77;;;-2.60;43.50;;;;;;5029549;28;20489;-63
2022/01/13 03:58:29;;;;;;;87.00;29.10;;;-2.60;43.60;;;;;;5036327;28;20469;-62
2022/01/13 04:01:44;;;;;;;89.17;31.33;;;-2.50;43.70;;;;;;5026250;28;20454;-64
2022/01/13 04:04:11;;;;;;;92.00;31.17;;;-2.60;43.90;;;;;;5032136;28;20466;-63
2022/01/13 04:06:40;;;;;;;91.00;30.60;;;-2.60;43.50;;;;;;5034002;28;20490;-63
2022/01/13 04:09:20;;;;;;;87.20;31.80;;;-2.70;43.80;;;;;;5037541;28;21048;-63
2022/01/13 04:11:47;;;;;;;90.83;32.70;;;-2.60;43.90;;;;;;5028008;28;20839;-62
2022/01/13 04:14:14;;;;;;;94.90;32.43;;;-2.60;43.80;;;;;;5027955;28;20979;-63
2022/01/13 04:16:42;;;;;;;83.40;29.43;;;-2.60;44.40;;;;;;5028409;28;20490;-63
2022/01/13 04:19:09;;;;;;;95.67;33.07;;;-2.60;43.70;;;;;;5035504;28;20462;-63
2022/01/13 04:21:39;;;;;;;87.30;31.07;;;-2.60;43.70;;;;;;5037080;28;20811;-63
2022/01/13 04:24:07;;;;;;;99.13;35.30;;;-2.60;43.40;;;;;;5031488;28;20478;-64
2022/01/13 04:26:34;;;;;;;98.57;32.63;;;-2.70;43.40;;;;;;5053637;28;20481;-63
2022/01/13 04:29:17;;;;;;;95.03;32.40;;;-2.70;43.50;;;;;;5040921;28;20465;-63
2022/01/13 04:31:47;;;;;;;91.27;34.50;;;-2.70;43.70;;;;;;5033523;28;20838;-63
2022/01/13 04:34:14;;;;;;;86.27;30.10;;;-2.50;43.80;;;;;;5029124;28;21023;-64
2022/01/13 04:36:41;;;;;;;99.07;34.43;;;-2.60;43.70;;;;;;5029023;28;20486;-65
2022/01/13 04:39:10;;;;;;;86.20;32.27;;;-2.50;43.70;;;;;;5031749;28;20466;-64
2022/01/13 04:41:39;;;;;;;87.23;29.67;;;-2.50;43.70;;;;;;5036395;28;20458;-63
2022/01/13 04:44:07;;;;;;;88.33;32.00;;;-2.50;43.60;;;;;;5044451;28;20455;-63
2022/01/13 04:46:35;;;;;;;99.53;34.70;;;-2.50;43.60;;;;;;5035019;28;20501;-62
2022/01/13 04:49:04;;;;;;;100.10;34.77;;;-2.40;43.50;;;;;;5033393;28;20457;-62
2022/01/13 04:51:30;;;;;;;93.17;32.43;;;-2.40;43.40;;;;;;5036237;28;20533;-63
2022/01/13 04:53:58;;;;;;;93.00;33.17;;;-2.30;43.40;;;;;;5046256;28;20508;-62
2022/01/13 04:56:30;;;;;;;88.97;29.40;;;-2.30;43.40;;;;;;5042305;28;20489;-63
2022/01/13 04:58:59;;;;;;;88.13;31.93;;;-2.30;43.50;;;;;;5033823;28;20459;-63
2022/01/13 05:01:26;;;;;;;98.90;33.37;;;-2.20;43.50;;;;;;5014436;28;20470;-63
2022/01/13 05:03:52;;;;;;;97.50;34.00;;;-2.20;43.40;;;;;;5028614;28;20454;-64
2022/01/13 05:06:20;;;;;;;89.17;32.37;;;-2.10;43.50;;;;;;5027478;28;20883;-62
2022/01/13 05:08:48;;;;;;;90.37;30.63;;;-2.00;43.50;;;;;;5032626;28;20486;-63
2022/01/13 05:11:15;;;;;;;85.40;31.40;;;-2.00;43.30;;;;;;5027190;28;20459;-62
2022/01/13 05:13:42;;;;;;;88.80;32.60;;;-1.90;43.30;;;;;;5031479;28;20455;-63
2022/01/13 05:16:16;;;;;;;84.40;30.80;;;-1.90;43.00;;;;;;5030836;28;20565;-63
2022/01/13 05:18:49;;;;;;;93.17;31.97;;;-1.90;43.60;;;;;;5032051;28;20535;-64
2022/01/13 05:21:21;;;;;;;94.10;32.13;;;-1.90;42.90;;;;;;5038189;28;20961;-63
2022/01/13 05:23:51;;;;;;;87.80;31.40;;;-1.90;43.00;;;;;;5033568;28;20451;-62
2022/01/13 05:26:20;;;;;;;86.77;29.07;;;-1.80;42.80;;;;;;5042867;28;20578;-62
2022/01/13 05:28:47;;;;;;;97.50;34.17;;;-1.80;42.80;;;;;;5036786;28;20508;-62
2022/01/13 05:31:14;;;;;;;85.70;29.80;;;-1.80;42.70;;;;;;5033014;28;20470;-65
2022/01/13 05:33:41;;;;;;;96.20;32.73;;;-1.80;42.70;;;;;;5028483;28;20479;-62
2022/01/13 05:36:08;;;;;;;127.83;37.50;;;-1.80;42.90;;;;;;5029994;28;20490;-63
2022/01/13 05:38:35;;;;;;;114.30;41.77;;;-1.80;43.20;;;;;;5030130;28;20984;-64
2022/01/13 05:41:03;;;;;;;116.67;38.50;;;-1.80;43.40;;;;;;5032543;28;20674;-63
2022/01/13 05:43:30;;;;;;;154.10;40.57;;;-1.80;43.50;;;;;;5028586;28;20465;-64
2022/01/13 05:45:57;;;;;;;114.17;38.33;;;-1.70;43.70;;;;;;5026219;28;20471;-65
2022/01/13 05:48:23;;;;;;;146.80;41.23;;;-1.70;43.80;;;;;;5029168;28;20471;-64
2022/01/13 05:50:50;;;;;;;123.73;37.73;;;-1.70;43.90;;;;;;5039220;28;20465;-65
2022/01/13 05:53:17;;;;;;;127.83;39.70;;;-1.70;44.30;;;;;;5033753;28;20467;-65
2022/01/13 05:55:43;;;;;;;118.70;39.83;;;-1.70;44.80;;;;;;5029845;28;20498;-66
2022/01/13 05:58:12;;;;;;;123.90;41.17;;;-1.70;44.90;;;;;;5029884;28;20459;-65
2022/01/13 06:00:39;;;;;;;132.60;39.03;;;-1.70;44.90;;;;;;5038271;28;20465;-63
2022/01/13 06:03:05;;;;;;;107.30;37.23;;;-1.70;45.10;;;;;;5026811;28;20494;-64
2022/01/13 06:05:32;;;;;;;109.07;36.57;;;-1.70;45.10;;;;;;5029860;28;20458;-61
2022/01/13 06:07:59;;;;;;;115.93;38.93;;;-1.60;45.20;;;;;;5030385;28;20462;-62
2022/01/13 06:10:26;;;;;;;121.83;42.07;;;-1.60;45.30;;;;;;5028205;28;21028;-63
2022/01/13 06:12:53;;;;;;;127.63;44.47;;;-1.60;45.20;;;;;;5030669;28;20486;-64
2022/01/13 06:15:24;;;;;;;138.67;40.37;;;-1.50;45.40;;;;;;5031217;28;20486;-64
2022/01/13 06:17:52;;;;;;;205.33;42.70;;;-1.50;45.50;;;;;;5040080;28;20493;-65
2022/01/13 06:20:20;;;;;;;138.20;42.77;;;-1.50;45.70;;;;;;5028596;28;20514;-64
2022/01/13 06:22:49;;;;;;;114.57;38.27;;;-1.60;45.60;;;;;;5035587;28;20973;-64
2022/01/13 06:25:17;;;;;;;150.43;39.43;;;-1.60;45.80;;;;;;5027606;28;20676;-64
2022/01/13 06:27:44;;;;;;;146.40;39.13;;;-1.60;45.70;;;;;;5030198;28;20520;-62
2022/01/13 06:30:14;;;;;;;187.60;43.27;;;-1.60;45.70;;;;;;5029461;28;20460;-63
2022/01/13 06:32:42;;;;;;;156.57;42.17;;;-1.60;45.60;;;;;;5040106;28;20499;-63
2022/01/13 06:35:10;;;;;;;155.07;37.90;;;-1.60;45.80;;;;;;5024136;28;20463;-63
2022/01/13 06:37:37;;;;;;;123.57;40.93;;;-1.60;45.60;;;;;;5029980;28;20479;-62
2022/01/13 06:40:05;;;;;;;116.90;35.23;;;-1.60;45.70;;;;;;5028821;28;20466;-64
2022/01/13 06:42:32;;;;;;;124.70;41.10;;;-1.60;45.80;;;;;;5027408;28;20447;-64
2022/01/13 06:44:58;;;;;;;118.30;38.67;;;-1.50;45.80;;;;;;5029207;28;20470;-65
2022/01/13 06:47:25;;;;;;;125.50;38.33;;;-1.60;45.80;;;;;;5027414;28;20479;-63
2022/01/13 06:49:53;;;;;;;115.00;40.47;;;-1.50;45.80;;;;;;5024563;28;20463;-63
2022/01/13 06:52:20;;;;;;;116.27;37.87;;;-1.50;45.70;;;;;;5029379;28;20467;-63
2022/01/13 06:54:47;;;;;;;110.30;34.47;;;-1.40;45.60;;;;;;5029829;28;20461;-63
2022/01/13 06:57:13;;;;;;;118.27;36.83;;;-1.40;45.50;;;;;;5026797;28;20493;-62
2022/01/13 06:59:40;;;;;;;122.73;37.00;;;-1.40;45.40;;;;;;5030725;28;20455;-63
2022/01/13 07:02:07;;;;;;;117.03;39.40;;;-1.40;45.40;;;;;;5024892;28;20463;-63
2022/01/13 07:04:34;;;;;;;116.87;37.87;;;-1.30;45.40;;;;;;5032128;28;20545;-62
2022/01/13 07:07:03;;;;;;;116.77;39.00;;;-1.30;45.30;;;;;;5027792;28;21038;-65
2022/01/13 07:09:30;;;;;;;125.27;39.37;;;-1.30;45.20;;;;;;5036651;28;20466;-65
2022/01/13 07:11:56;;;;;;;130.23;41.77;;;-1.30;45.20;;;;;;5028533;28;20474;-63
2022/01/13 07:14:23;;;;;;;116.17;37.20;;;-1.30;45.10;;;;;;5038621;28;20462;-64
2022/01/13 07:16:50;;;;;;;136.07;40.60;;;-1.30;45.00;;;;;;5028557;28;20483;-61
2022/01/13 07:19:17;;;;;;;132.50;42.20;;;-1.30;44.90;;;;;;5046231;28;20462;-64
2022/01/13 07:21:45;;;;;;;119.10;37.80;;;-1.30;44.90;;;;;;5038203;28;20463;-65
2022/01/13 07:24:14;;;;;;;185.60;40.10;;;-1.20;45.00;;;;;;5025629;28;20465;-64
2022/01/13 07:26:41;;;;;;;165.67;42.53;;;-1.30;44.90;;;;;;5028748;28;20486;-66
2022/01/13 07:29:08;;;;;;;141.53;41.20;;;-1.30;45.00;;;;;;5028264;28;20467;-66
2022/01/13 07:31:36;;;;;;;125.03;41.50;;;-1.30;44.90;;;;;;5027908;28;20482;-64
2022/01/13 07:34:03;;;;;;;130.27;43.90;;;-1.30;44.90;;;;;;5032159;28;20463;-64
2022/01/13 07:36:30;;;;;;;127.37;41.30;;;-1.30;44.80;;;;;;5027797;28;20491;-64
2022/01/13 07:38:57;;;;;;;144.70;38.70;;;-1.30;44.80;;;;;;5027866;28;20893;-63
2022/01/13 07:41:25;;;;;;;128.03;39.80;;;-1.30;44.80;;;;;;5028224;28;20455;-65
2022/01/13 07:43:54;;;;;;;126.63;40.93;;;-1.30;44.90;;;;;;5026414;28;20463;-64
2022/01/13 07:46:22;;;;;;;129.00;40.63;;;-1.30;44.80;;;;;;5028878;28;20502;-61
2022/01/13 07:48:49;;;;;;;125.87;39.97;;;-1.30;44.90;;;;;;5032254;28;20467;-64
2022/01/13 07:51:16;;;;;;;125.17;40.50;;;-1.30;45.00;;;;;;5027510;28;20467;-64
2022/01/13 07:53:43;;;;;;;126.40;38.30;;;-1.30;45.10;;;;;;5026191;28;20991;-64
2022/01/13 07:56:09;;;;;;;142.60;37.07;;;-1.40;45.30;;;;;;5026829;28;20600;-63
2022/01/13 07:58:40;;;;;;;111.30;37.10;;;-1.50;45.70;;;;;;5038909;28;20442;-65
2022/01/13 08:01:07;;;;;;;121.80;37.73;;;-1.40;45.80;;;;;;5043241;28;20512;-66
2022/01/13 08:03:34;;;;;;;117.10;38.23;;;-1.40;45.70;;;;;;5023223;28;20812;-64
2022/01/13 08:06:01;;;;;;;132.10;38.20;;;-1.30;45.70;;;;;;5036875;28;20513;-63
2022/01/13 08:08:28;;;;;;;111.53;36.77;;;-1.30;45.80;;;;;;5063784;22;21228;-63
2022/01/13 08:10:55;;;;;;;109.10;34.37;;;-1.30;45.60;;;;;;5038941;28;20455;-63
2022/01/13 08:13:21;;;;;;;119.60;38.00;;;-1.30;45.80;;;;;;5044848;28;20454;-62
2022/01/13 08:15:52;;;;;;;117.57;39.50;;;-1.30;45.60;;;;;;5045858;28;21015;-62
2022/01/13 08:21:03;;;;;;;102.97;34.70;;;-1.20;45.50;;;;;;5046702;28;20468;-62
2022/01/13 08:23:30;;;;;;;101.37;34.83;;;-1.10;45.50;;;;;;5045554;28;20974;-62
2022/01/13 08:25:57;;;;;;;105.20;34.93;;;-1.10;45.40;;;;;;5042391;28;20461;-63
2022/01/13 08:28:27;;;;;;;111.87;35.93;;;-1.00;45.40;;;;;;5040029;28;20475;-62
2022/01/13 08:30:55;;;;;;;98.07;35.23;;;-0.90;45.30;;;;;;5041701;28;20545;-62
2022/01/13 08:33:23;;;;;;;105.87;34.83;;;-0.80;45.10;;;;;;5040097;28;20458;-62
2022/01/13 08:35:49;;;;;;;119.43;36.40;;;-0.80;45.00;;;;;;5044776;28;20543;-63
2022/01/13 08:38:18;;;;;;;99.23;35.17;;;-0.80;44.90;;;;;;5043953;28;20490;-63
2022/01/13 08:40:46;;;;;;;106.57;34.67;;;-0.80;44.80;;;;;;5049798;28;20466;-63
2022/01/13 08:43:13;;;;;;;115.20;38.50;;;-0.70;44.80;;;;;;5050545;28;20468;-62
2022/01/13 08:45:40;;;;;;;111.70;36.27;;;-0.60;44.60;;;;;;5048062;28;20476;-63
2022/01/13 08:48:08;;;;;;;105.33;35.13;;;-0.60;44.50;;;;;;5048786;28;20490;-63
2022/01/13 08:50:36;;;;;;;104.07;38.77;;;-0.50;44.50;;;;;;5045151;28;21009;-63
2022/01/13 08:53:03;;;;;;;102.57;35.13;;;-0.40;44.20;;;;;;5051013;28;20488;-63
2022/01/13 08:55:31;;;;;;;105.00;34.73;;;-0.30;44.20;;;;;;5050421;28;20515;-62
2022/01/13 08:57:58;;;;;;;104.70;34.30;;;-0.30;44.10;;;;;;5048900;28;20488;-63
2022/01/13 09:00:25;;;;;;;110.20;34.90;;;-0.20;43.90;;;;;;5046272;28;20860;-64
2022/01/13 09:02:51;;;;;;;106.03;34.17;;;-0.10;43.70;;;;;;5045622;28;20469;-61
2022/01/13 09:05:20;;;;;;;99.67;32.60;;;-0.20;43.50;;;;;;5042945;28;20917;-62
2022/01/13 09:07:48;;;;;;;109.20;38.00;;;-0.20;43.40;;;;;;5049841;28;20485;-62
2022/01/13 09:10:16;;;;;;;97.23;33.73;;;-0.10;43.30;;;;;;5048847;28;20460;-63
2022/01/13 09:12:43;;;;;;;113.07;37.33;;;-0.10;43.20;;;;;;5042731;28;20694;-62
2022/01/13 09:15:19;;;;;;;104.23;34.93;;;-0.10;43.10;;;;;;5052725;28;20454;-63
2022/01/13 09:17:51;;;;;;;107.97;37.30;;;-0.10;42.80;;;;;;5048274;28;20481;-63
2022/01/13 09:20:19;;;;;;;109.77;37.17;;;0.10;42.90;;;;;;5050485;28;20469;-62
2022/01/13 09:22:47;;;;;;;116.93;37.97;;;0.10;42.90;;;;;;5048986;28;20470;-62
2022/01/13 09:25:14;;;;;;;105.40;36.47;;;0.10;42.80;;;;;;5042177;28;20688;-62
2022/01/13 09:27:42;;;;;;;112.97;40.70;;;0.20;42.70;;;;;;5044428;28;20473;-63
2022/01/13 09:30:10;;;;;;;101.93;35.33;;;0.20;42.60;;;;;;5049670;28;20811;-63
2022/01/13 09:32:37;;;;;;;114.47;39.40;;;0.30;43.30;;;;;;5048789;28;20462;-62
2022/01/13 09:35:05;;;;;;;116.33;40.77;;;0.40;42.50;;;;;;5049387;28;21173;-63
2022/01/13 09:37:33;;;;;;;115.47;41.57;;;0.40;42.40;;;;;;5051635;28;20584;-64
2022/01/13 09:40:00;;;;;;;107.23;38.77;;;0.40;42.20;;;;;;5048089;28;20458;-63
2022/01/13 09:42:28;;;;;;;102.10;35.80;;;0.50;42.20;;;;;;5046814;28;20512;-62
2022/01/13 09:44:57;;;;;;;113.33;34.90;;;0.60;41.80;;;;;;5051229;28;20485;-62
2022/01/13 09:47:24;;;;;;;98.67;33.93;;;0.60;42.30;;;;;;5051105;28;21054;-63
2022/01/13 09:49:51;;;;;;;106.77;36.87;;;0.70;41.50;;;;;;5047589;28;20466;-64
2022/01/13 09:52:21;;;;;;;109.73;36.07;;;0.60;41.50;;;;;;5046602;28;20462;-63
2022/01/13 09:54:50;;;;;;;108.70;35.67;;;0.60;41.20;;;;;;5049362;28;20574;-62
2022/01/13 09:57:16;;;;;;;99.83;35.93;;;0.60;40.80;;;;;;5046339;28;20576;-63
2022/01/13 09:59:43;;;;;;;100.73;34.80;;;0.60;40.80;;;;;;5044107;28;20470;-62
2022/01/13 10:02:10;;;;;;;92.70;33.10;;;0.60;41.00;;;;;;5045000;28;20462;-63
2022/01/13 10:04:49;;;;;;;109.27;33.60;;;0.70;41.00;;;;;;5043889;28;20509;-64
2022/01/13 10:07:29;;;;;;;92.60;31.70;;;0.70;40.50;;;;;;5043179;28;20493;-64
2022/01/13 10:10:00;;;;;;;97.07;32.57;;;0.60;40.10;;;;;;5042283;28;20958;-63
2022/01/13 10:12:30;;;;;;;88.23;29.13;;;0.60;40.30;;;;;;5049247;28;20450;-63
2022/01/13 10:17:47;;;;;;;91.33;32.13;;;0.60;40.60;;;;;;5040051;28;21026;-64
2022/01/13 10:20:16;;;;;;;90.93;32.50;;;0.70;40.60;;;;;;5048698;28;20471;-63
2022/01/13 10:22:43;;;;;;;95.47;31.30;;;0.80;40.60;;;;;;5047115;28;20461;-63
2022/01/13 10:25:30;;;;;;;96.57;34.13;;;0.90;40.50;;;;;;5046546;28;20465;-64
2022/01/13 10:27:57;;;;;;;84.67;31.47;;;0.80;39.90;;;;;;5043610;28;20481;-62
2022/01/13 10:30:26;;;;;;;93.63;31.87;;;0.70;39.90;;;;;;5047911;28;20454;-63
2022/01/13 10:32:54;;;;;;;93.37;32.10;;;0.70;39.40;;;;;;5043687;28;20538;-65
2022/01/13 10:35:23;;;;;;;94.70;31.67;;;0.70;39.40;;;;;;5046762;28;20462;-63
2022/01/13 10:37:54;;;;;;;93.07;32.93;;;0.60;39.60;;;;;;5041812;28;20497;-67
2022/01/13 10:40:25;;;;;;;92.03;33.33;;;0.60;39.80;;;;;;5039062;28;20513;-62
2022/01/13 10:43:09;;;;;;;99.80;32.60;;;0.70;40.00;;;;;;5043038;28;20458;-63
2022/01/13 10:45:48;;;;;;;94.20;31.60;;;0.70;40.00;;;;;;5048019;28;20450;-64
2022/01/13 10:48:17;;;;;;;99.10;33.07;;;0.80;39.90;;;;;;5042558;28;21220;-64
2022/01/13 10:50:47;;;;;;;106.60;38.30;;;0.90;39.90;;;;;;5044742;28;20492;-62
2022/01/13 10:53:16;;;;;;;93.33;32.77;;;1.00;39.90;;;;;;5044654;28;20462;-63
2022/01/13 10:55:47;;;;;;;86.50;32.03;;;1.10;39.70;;;;;;5044639;28;20473;-62
2022/01/13 10:58:17;;;;;;;94.53;33.70;;;1.10;39.30;;;;;;5047233;28;20533;-65
2022/01/13 11:00:46;;;;;;;88.77;31.60;;;1.20;39.20;;;;;;5041883;28;20853;-62
2022/01/13 11:03:15;;;;;;;100.80;35.27;;;1.20;39.10;;;;;;5045080;28;20484;-62
2022/01/13 11:05:46;;;;;;;83.40;29.30;;;1.30;39.10;;;;;;5046467;28;20485;-62
2022/01/13 11:08:19;;;;;;;91.80;30.83;;;1.30;38.70;;;;;;5041262;28;20492;-61
2022/01/13 11:10:50;;;;;;;92.77;33.77;;;1.40;38.60;;;;;;5046143;28;20466;-63
2022/01/13 11:13:18;;;;;;;89.93;27.73;;;1.30;37.80;;;;;;5045757;28;20465;-65
2022/01/13 11:15:50;;;;;;;91.07;30.07;;;1.40;37.40;;;;;;5046361;28;20470;-62
2022/01/13 11:18:19;;;;;;;89.07;30.47;;;1.50;37.40;;;;;;5043609;28;20490;-63
2022/01/13 11:20:46;;;;;;;95.13;32.27;;;1.50;37.80;;;;;;5041111;28;20485;-61
2022/01/13 11:23:15;;;;;;;93.67;30.50;;;1.60;38.30;;;;;;5047733;28;20473;-62
2022/01/13 11:25:43;;;;;;;99.47;33.83;;;1.70;38.50;;;;;;5040559;28;21847;-64
2022/01/13 11:28:12;;;;;;;97.27;32.53;;;1.80;38.40;;;;;;5044698;28;20474;-62
2022/01/13 11:30:40;;;;;;;91.00;32.50;;;2.00;38.40;;;;;;5041881;28;20975;-62
2022/01/13 11:33:07;;;;;;;84.30;28.73;;;2.10;38.20;;;;;;5046298;28;20454;-62
2022/01/13 11:35:37;;;;;;;91.67;31.40;;;2.00;36.80;;;;;;5044161;28;20469;-65
2022/01/13 11:38:06;;;;;;;95.27;32.10;;;1.90;36.80;;;;;;5044168;28;20488;-62
2022/01/13 11:40:39;;;;;;;90.23;31.63;;;1.90;37.00;;;;;;5041736;28;20498;-64
2022/01/13 11:43:09;;;;;;;93.17;34.30;;;1.90;37.30;;;;;;5045805;28;20473;-64
2022/01/13 11:45:40;;;;;;;91.17;30.60;;;2.00;37.30;;;;;;5050104;28;20474;-64
2022/01/13 11:48:19;;;;;;;92.33;32.03;;;2.10;37.50;;;;;;5045725;28;20474;-65
2022/01/13 11:50:50;;;;;;;85.17;31.93;;;2.10;37.50;;;;;;5045849;28;20569;-67
2022/01/13 11:53:30;;;;;;;91.67;32.83;;;2.20;37.20;;;;;;5044750;28;21453;-65
2022/01/13 11:56:00;;;;;;;95.07;33.10;;;2.20;37.10;;;;;;5040256;28;20464;-65
2022/01/13 11:58:31;;;;;;;97.73;34.33;;;2.30;36.90;;;;;;5045754;28;20870;-64
2022/01/13 12:01:10;;;;;;;93.93;35.47;;;2.30;36.90;;;;;;5043772;28;20469;-64
2022/01/13 12:03:40;;;;;;;94.80;34.10;;;2.40;36.80;;;;;;5038666;28;20972;-62
2022/01/13 12:06:07;;;;;;;103.40;35.67;;;2.40;36.80;;;;;;5042817;28;20466;-62
2022/01/13 12:08:51;;;;;;;104.33;36.87;;;2.50;36.70;;;;;;5047462;28;20512;-63
2022/01/13 12:11:43;;;;;;;103.80;38.67;;;2.50;36.50;;;;;;5047014;28;20505;-63
2022/01/13 12:14:38;;;;;;;108.60;39.80;;;2.60;36.50;;;;;;5045923;28;20547;-63
2022/01/13 12:17:11;;;;;;;95.80;33.50;;;2.60;36.40;;;;;;5040242;28;20523;-63
2022/01/13 12:19:41;;;;;;;104.57;37.03;;;2.60;36.40;;;;;;5042294;28;20454;-63
2022/01/13 12:22:12;;;;;;;95.47;34.67;;;2.60;36.40;;;;;;5047496;28;20468;-63
2022/01/13 12:24:48;;;;;;;94.70;34.67;;;2.60;35.70;;;;;;5042257;28;20846;-63
2022/01/13 12:27:16;;;;;;;96.30;33.60;;;2.60;35.90;;;;;;5044495;28;20485;-62
2022/01/13 12:29:48;;;;;;;93.70;34.13;;;2.50;36.10;;;;;;5046592;28;20473;-63
2022/01/13 12:32:34;;;;;;;91.10;33.23;;;2.50;36.30;;;;;;5039027;28;20468;-63
2022/01/13 12:35:00;;;;;;;98.30;33.77;;;2.50;36.10;;;;;;5041729;28;20557;-63
2022/01/13 12:37:29;;;;;;;92.97;31.30;;;2.50;36.30;;;;;;5042456;28;20493;-63
2022/01/13 12:40:13;;;;;;;86.47;31.70;;;2.60;36.10;;;;;;5041915;28;20573;-65
2022/01/13 12:42:43;;;;;;;92.80;32.63;;;2.70;36.20;;;;;;5040326;28;20458;-64
2022/01/13 12:45:29;;;;;;;89.67;29.70;;;2.70;35.90;;;;;;5042444;28;20458;-63
2022/01/13 12:47:58;;;;;;;88.07;31.33;;;2.80;35.90;;;;;;5042841;28;20505;-64